createdAt,value
2014-09-27T09:17:41.620Z,77
2014-09-27T09:17:59.854Z,79
2014-09-27T09:18:18.073Z,81
2014-09-27T09:18:35.670Z,81
2014-09-27T09:18:53.404Z,82
2014-09-27T09:19:10.514Z,81
2014-09-27T09:19:28.107Z,79
2014-09-27T09:19:46.484Z,79
2014-09-27T09:20:04.703Z,79
2014-09-27T09:20:22.922Z,75
2014-09-27T09:20:40.518Z,81
2014-09-27T09:20:58.111Z,81
2014-09-27T09:21:16.346Z,75
2014-09-27T09:21:33.940Z,55
2014-09-27T09:21:52.192Z,79
2014-09-27T09:22:10.426Z,79
2014-09-27T09:22:28.145Z,77
2014-09-27T09:22:46.364Z,56
2014-09-27T09:23:04.599Z,40
2014-09-27T09:23:22.818Z,38
2014-09-27T09:23:40.571Z,38
2014-09-27T09:23:58.805Z,41
2014-09-27T09:24:17.055Z,39
2014-09-27T09:24:35.399Z,39
2014-09-27T09:24:53.635Z,38
2014-09-27T09:25:11.229Z,37
2014-09-27T09:25:28.823Z,41
2014-09-27T09:25:46.432Z,55
2014-09-27T09:26:04.028Z,56
2014-09-27T09:26:21.637Z,55
2014-09-27T09:26:38.606Z,75
2014-09-27T09:26:55.577Z,74
2014-09-27T09:27:13.811Z,74
2014-09-27T09:27:31.405Z,73
2014-09-27T09:27:48.373Z,73
2014-09-27T09:28:06.610Z,73
2014-09-27T09:28:24.204Z,73
2014-09-27T09:28:41.797Z,73
2014-09-27T09:29:00.018Z,73
2014-09-27T09:29:17.612Z,73
2014-09-27T09:29:35.831Z,72
2014-09-27T09:29:53.440Z,70
2014-09-27T09:30:11.801Z,69
2014-09-27T09:30:30.020Z,54
2014-09-27T09:30:48.239Z,42
2014-09-27T09:31:05.835Z,33
2014-09-27T09:31:24.178Z,30
2014-09-27T09:31:42.413Z,27
2014-09-27T09:32:00.133Z,26
2014-09-27T09:32:17.852Z,25
2014-09-27T09:32:34.821Z,25
2014-09-27T09:32:52.430Z,24
2014-09-27T09:33:10.680Z,23
2014-09-27T09:33:28.899Z,25
2014-09-27T09:33:47.118Z,26
2014-09-27T09:34:05.093Z,24
2014-09-27T09:34:23.327Z,23
2014-09-27T09:34:41.546Z,22
2014-09-27T09:34:59.140Z,22
2014-09-27T09:35:16.809Z,21
2014-09-27T09:35:34.388Z,20
2014-09-27T09:35:52.622Z,20
2014-09-27T09:36:10.200Z,20
2014-09-27T09:36:28.002Z,20
2014-09-27T09:36:46.346Z,22
2014-09-27T09:37:03.956Z,44
2014-09-27T09:37:22.263Z,22
2014-09-27T09:37:40.497Z,19
2014-09-27T09:37:58.091Z,17
2014-09-27T09:38:15.669Z,17
2014-09-27T09:38:33.447Z,17
2014-09-27T09:38:50.400Z,18
2014-09-27T09:39:08.618Z,18
2014-09-27T09:39:26.255Z,19
2014-09-27T09:39:43.224Z,19
2014-09-27T09:40:01.442Z,18
2014-09-27T09:40:19.687Z,18
2014-09-27T09:40:37.296Z,18
2014-09-27T09:40:55.656Z,18
2014-09-27T09:41:13.890Z,18
2014-09-27T09:41:31.512Z,18
2014-09-27T09:41:49.746Z,18
2014-09-27T09:42:07.965Z,19
2014-09-27T09:42:26.211Z,26
2014-09-27T09:42:43.211Z,60
2014-09-27T09:43:00.773Z,60
2014-09-27T09:43:19.008Z,60
2014-09-27T09:43:37.240Z,61
2014-09-27T09:43:55.459Z,59
2014-09-27T09:44:13.053Z,55
2014-09-27T09:44:31.283Z,60
2014-09-27T09:44:49.517Z,60
2014-09-27T09:45:07.751Z,60
2014-09-27T09:45:25.986Z,60
2014-09-27T09:45:44.216Z,61
2014-09-27T09:46:01.950Z,60
2014-09-27T09:46:19.669Z,21
2014-09-27T09:46:37.272Z,23
2014-09-27T09:46:55.491Z,39
2014-09-27T09:47:13.101Z,61
2014-09-27T09:47:31.319Z,61
2014-09-27T09:47:48.924Z,61
2014-09-27T09:48:07.315Z,61
2014-09-27T09:48:25.533Z,61
2014-09-27T09:48:43.757Z,61
2014-09-27T09:49:02.117Z,62
2014-09-27T09:49:19.835Z,62
2014-09-27T09:49:38.195Z,61
2014-09-27T09:49:56.419Z,61
2014-09-27T09:50:14.013Z,61
2014-09-27T09:50:31.623Z,61
2014-09-27T09:50:49.216Z,61
2014-09-27T09:51:07.440Z,62
2014-09-27T09:51:25.034Z,62
2014-09-27T09:51:42.628Z,63
2014-09-27T09:52:00.867Z,64
2014-09-27T09:52:18.586Z,64
2014-09-27T09:52:36.320Z,65
2014-09-27T09:52:53.914Z,65
2014-09-27T09:53:12.153Z,65
2014-09-27T09:53:30.513Z,65
2014-09-27T09:53:48.731Z,66
2014-09-27T09:54:07.079Z,66
2014-09-27T09:54:24.813Z,67
2014-09-27T09:54:43.048Z,67
2014-09-27T09:55:00.657Z,68
2014-09-27T09:55:18.253Z,69
2014-09-27T09:55:36.487Z,69
2014-09-27T09:55:54.706Z,70
2014-09-27T09:56:12.304Z,70
2014-09-27T09:56:29.898Z,71
2014-09-27T09:56:48.116Z,71
2014-09-27T09:57:06.351Z,71
2014-09-27T09:57:23.947Z,71
2014-09-27T09:57:42.166Z,71
2014-09-27T09:58:00.385Z,72
2014-09-27T09:58:17.982Z,72
2014-09-27T09:58:36.200Z,72
2014-09-27T09:58:54.450Z,72
2014-09-27T09:59:12.671Z,72
2014-09-27T09:59:30.265Z,73
2014-09-27T09:59:48.484Z,73
2014-09-27T10:00:06.077Z,74
2014-09-27T10:00:24.439Z,74
2014-09-27T10:00:42.658Z,75
2014-09-27T10:01:00.251Z,76
2014-09-27T10:01:18.473Z,76
2014-09-27T10:01:36.707Z,77
2014-09-27T10:01:54.926Z,78
2014-09-27T10:02:12.504Z,78
2014-09-27T10:02:30.742Z,79
2014-09-27T10:02:48.960Z,78
2014-09-27T10:03:06.554Z,79
2014-09-27T10:03:24.775Z,78
2014-09-27T10:03:42.994Z,79
2014-09-27T10:04:01.228Z,79
2014-09-27T10:04:19.447Z,79
2014-09-27T10:04:37.668Z,78
2014-09-27T10:04:55.902Z,77
2014-09-27T10:05:14.121Z,76
2014-09-27T10:05:31.089Z,76
2014-09-27T10:05:48.686Z,76
2014-09-27T10:06:06.905Z,76
2014-09-27T10:06:25.124Z,76
2014-09-27T10:06:43.360Z,76
2014-09-27T10:07:01.579Z,76
2014-09-27T10:07:19.173Z,76
2014-09-27T10:07:37.409Z,77
2014-09-27T10:07:55.628Z,77
2014-09-27T10:08:13.221Z,76
2014-09-27T10:08:31.456Z,76
2014-09-27T10:08:49.052Z,76
2014-09-27T10:09:07.286Z,77
2014-09-27T10:09:25.520Z,77
2014-09-27T10:09:43.741Z,77
2014-09-27T10:10:01.960Z,77
2014-09-27T10:10:19.585Z,78
2014-09-27T10:10:37.319Z,78
2014-09-27T10:10:54.915Z,79
2014-09-27T10:11:13.134Z,79
2014-09-27T10:11:30.743Z,78
2014-09-27T10:11:48.337Z,77
2014-09-27T10:12:06.683Z,74
2014-09-27T10:12:24.276Z,76
2014-09-27T10:12:42.511Z,74
2014-09-27T10:13:00.107Z,75
2014-09-27T10:13:17.701Z,75
2014-09-27T10:13:35.936Z,77
2014-09-27T10:13:54.170Z,77
2014-09-27T10:14:11.766Z,77
2014-09-27T10:14:29.359Z,76
2014-09-27T10:14:47.594Z,78
2014-09-27T10:15:36.267Z,77
2014-09-27T10:15:54.501Z,76
2014-09-27T10:16:12.237Z,66
2014-09-27T10:16:30.456Z,37
2014-09-27T10:16:48.066Z,36
2014-09-27T10:17:05.786Z,36
2014-09-27T10:17:23.380Z,36
2014-09-27T10:17:41.614Z,36
2014-09-27T10:17:59.974Z,36
2014-09-27T10:18:18.320Z,39
2014-09-27T10:18:36.054Z,73
2014-09-27T10:18:53.663Z,75
2014-09-27T10:19:11.901Z,58
2014-09-27T10:19:30.244Z,64
2014-09-27T10:19:47.854Z,70
2014-09-27T10:20:04.823Z,54
2014-09-27T10:20:23.183Z,60
2014-09-27T10:20:41.402Z,42
2014-09-27T10:20:59.777Z,34
2014-09-27T10:21:18.014Z,35
2014-09-27T10:21:36.248Z,31
2014-09-27T10:21:54.467Z,29
2014-09-27T10:22:12.063Z,27
2014-09-27T10:22:30.297Z,27
2014-09-27T10:22:47.891Z,26
2014-09-27T10:23:05.485Z,25
2014-09-27T10:23:23.830Z,25
2014-09-27T10:23:42.189Z,25
2014-09-27T10:24:00.423Z,24
2014-09-27T10:24:18.770Z,24
2014-09-27T10:24:37.004Z,24
2014-09-27T10:24:55.364Z,24
2014-09-27T10:25:13.583Z,24
2014-09-27T10:25:31.818Z,24
2014-09-27T10:25:48.912Z,24
2014-09-27T10:26:07.271Z,24
2014-09-27T10:26:25.505Z,24
2014-09-27T10:26:43.101Z,25
2014-09-27T10:27:00.695Z,24
2014-09-27T10:27:18.289Z,24
2014-09-27T10:27:36.509Z,23
2014-09-27T10:27:54.744Z,23
2014-09-27T10:28:12.322Z,23
2014-09-27T10:28:30.558Z,23
2014-09-27T10:28:48.777Z,23
2014-09-27T10:29:06.996Z,22
2014-09-27T10:29:25.230Z,20
2014-09-27T10:29:43.593Z,19
2014-09-27T10:30:01.811Z,18
2014-09-27T10:30:20.046Z,17
2014-09-27T10:30:37.641Z,17
2014-09-27T10:30:55.860Z,16
2014-09-27T10:31:14.079Z,16
2014-09-27T10:31:32.313Z,16
2014-09-27T10:31:50.534Z,16
2014-09-27T10:32:08.753Z,16
2014-09-27T10:32:27.128Z,16
2014-09-27T10:32:44.738Z,16
2014-09-27T10:33:02.957Z,16
2014-09-27T10:33:19.926Z,16
2014-09-27T10:33:38.144Z,16
2014-09-27T10:33:54.615Z,16
2014-09-27T10:34:12.834Z,16
2014-09-27T10:34:30.428Z,16
2014-09-27T10:34:48.646Z,16
2014-09-27T10:35:06.884Z,16
2014-09-27T10:35:25.103Z,15
2014-09-27T10:35:43.462Z,14
2014-09-27T10:36:01.073Z,14
2014-09-27T10:36:19.292Z,14
2014-09-27T10:36:36.261Z,15
2014-09-27T10:36:54.480Z,16
2014-09-27T10:37:12.715Z,59
2014-09-27T10:37:30.449Z,67
2014-09-27T10:37:47.418Z,67
2014-09-27T10:38:05.671Z,67
2014-09-27T10:38:23.905Z,67
2014-09-27T10:38:40.874Z,67
2014-09-27T10:38:59.093Z,67
2014-09-27T10:39:17.313Z,68
2014-09-27T10:39:35.547Z,68
2014-09-27T10:39:53.156Z,68
2014-09-27T10:40:10.753Z,68
2014-09-27T10:40:28.988Z,68
2014-09-27T10:40:47.206Z,68
2014-09-27T10:41:04.800Z,68
2014-09-27T10:41:23.021Z,69
2014-09-27T10:41:41.255Z,69
2014-09-27T10:41:59.474Z,69
2014-09-27T10:42:17.070Z,69
2014-09-27T10:42:35.288Z,69
2014-09-27T10:42:53.523Z,69
2014-09-27T10:43:11.101Z,69
2014-09-27T10:43:59.494Z,70
2014-09-27T10:44:17.729Z,70
2014-09-27T10:44:35.948Z,70
2014-09-27T10:44:54.182Z,70
2014-09-27T10:45:12.401Z,70
2014-09-27T10:45:30.622Z,71
2014-09-27T10:45:48.231Z,72
2014-09-27T10:46:06.450Z,72
2014-09-27T10:46:24.061Z,72
2014-09-27T10:46:41.655Z,73
2014-09-27T10:46:59.374Z,72
2014-09-27T10:47:16.969Z,73
2014-09-27T10:47:34.563Z,73
2014-09-27T10:47:51.672Z,74
2014-09-27T10:48:10.032Z,74
2014-09-27T10:48:28.254Z,75
2014-09-27T10:48:46.613Z,75
2014-09-27T10:49:04.207Z,75
2014-09-27T10:49:22.426Z,75
2014-09-27T10:49:40.645Z,76
2014-09-27T10:49:58.864Z,76
2014-09-27T10:50:16.458Z,76
2014-09-27T10:50:34.694Z,77
2014-09-27T10:50:52.413Z,78
2014-09-27T10:51:10.022Z,78
2014-09-27T10:51:27.616Z,78
2014-09-27T10:51:44.572Z,79
2014-09-27T10:52:02.791Z,79
2014-09-27T10:52:20.510Z,79
2014-09-27T10:52:38.761Z,79
2014-09-27T10:52:56.370Z,79
2014-09-27T10:53:13.948Z,78
2014-09-27T10:53:32.182Z,79
2014-09-27T10:53:49.903Z,79
2014-09-27T10:54:07.497Z,80
2014-09-27T10:54:25.856Z,80
2014-09-27T10:54:43.452Z,80
2014-09-27T10:55:01.046Z,82
2014-09-27T10:55:18.624Z,81
2014-09-27T10:55:36.233Z,81
2014-09-27T10:55:54.455Z,81
2014-09-27T10:56:12.049Z,82
2014-09-27T10:56:30.408Z,81
2014-09-27T10:56:48.004Z,81
2014-09-27T10:57:06.348Z,82
2014-09-27T10:57:23.941Z,81
2014-09-27T10:57:42.161Z,82
2014-09-27T10:57:59.755Z,81
2014-09-27T10:58:17.989Z,81
2014-09-27T10:58:36.349Z,82
2014-09-27T10:58:54.069Z,81
2014-09-27T10:59:11.679Z,82
2014-09-27T10:59:29.898Z,82
2014-09-27T10:59:48.118Z,82
2014-09-27T11:00:06.353Z,82
2014-09-27T11:00:23.946Z,82
2014-09-27T11:00:42.165Z,82
2014-09-27T11:01:00.543Z,82
2014-09-27T11:01:18.137Z,82
2014-09-27T11:01:35.090Z,82
2014-09-27T11:01:53.449Z,82
2014-09-27T11:02:11.670Z,82
2014-09-27T11:02:29.889Z,82
2014-09-27T11:02:48.108Z,82
2014-09-27T11:03:06.327Z,82
2014-09-27T11:03:24.546Z,82
2014-09-27T11:03:42.765Z,82
2014-09-27T11:04:00.987Z,82
2014-09-27T11:04:18.580Z,82
2014-09-27T11:04:36.174Z,82
2014-09-27T11:04:53.143Z,83
2014-09-27T11:05:10.098Z,83
2014-09-27T11:05:27.692Z,83
2014-09-27T11:05:45.286Z,83
2014-09-27T11:06:03.504Z,83
2014-09-27T11:06:21.100Z,83
2014-09-27T11:06:39.319Z,83
2014-09-27T11:06:57.553Z,83
2014-09-27T11:07:15.773Z,83
2014-09-27T11:07:32.101Z,83
2014-09-27T11:07:49.070Z,82
2014-09-27T11:08:07.289Z,83
2014-09-27T11:08:25.650Z,80
2014-09-27T11:08:43.869Z,83
2014-09-27T11:09:02.087Z,84
2014-09-27T11:09:19.683Z,84
2014-09-27T11:09:37.277Z,85
2014-09-27T11:09:54.871Z,84
2014-09-27T11:10:13.230Z,84
2014-09-27T11:10:31.452Z,85
2014-09-27T11:10:48.421Z,85
2014-09-27T11:11:06.014Z,85
2014-09-27T11:11:23.608Z,85
2014-09-27T11:11:41.829Z,85
2014-09-27T11:12:00.063Z,85
2014-09-27T11:12:18.282Z,85
2014-09-27T11:12:35.878Z,86
2014-09-27T11:12:53.487Z,86
2014-09-27T11:13:11.206Z,86
2014-09-27T11:13:29.440Z,86
2014-09-27T11:13:47.035Z,87
2014-09-27T11:14:04.129Z,87
2014-09-27T11:14:22.347Z,86
2014-09-27T11:14:39.943Z,86
2014-09-27T11:14:58.303Z,86
2014-09-27T11:15:16.662Z,86
2014-09-27T11:15:34.396Z,86
2014-09-27T11:15:52.618Z,85
2014-09-27T11:16:10.837Z,85
2014-09-27T11:16:28.571Z,85
2014-09-27T11:16:46.308Z,86
2014-09-27T11:17:03.901Z,86
2014-09-27T11:17:22.136Z,86
2014-09-27T11:17:40.341Z,86
2014-09-27T11:17:58.591Z,86
2014-09-27T11:18:16.216Z,85
2014-09-27T11:18:34.528Z,86
2014-09-27T11:18:52.765Z,80
2014-09-27T11:19:10.983Z,85
2014-09-27T11:19:29.202Z,85
2014-09-27T11:19:47.422Z,85
2014-09-27T11:20:05.656Z,84
2014-09-27T11:20:23.875Z,84
2014-09-27T11:20:42.094Z,84
2014-09-27T11:20:59.691Z,85
2014-09-27T11:21:17.284Z,85
2014-09-27T11:21:35.503Z,86
2014-09-27T11:21:53.099Z,83
2014-09-27T11:22:11.318Z,81
2014-09-27T11:22:29.552Z,85
2014-09-27T11:22:47.130Z,85
2014-09-27T11:23:04.726Z,85
2014-09-27T11:23:23.085Z,85
2014-09-27T11:23:41.445Z,86
2014-09-27T11:23:59.805Z,86
2014-09-27T11:24:18.024Z,86
2014-09-27T11:24:35.117Z,86
2014-09-27T11:24:53.352Z,87
2014-09-27T11:25:11.699Z,87
2014-09-27T11:25:29.933Z,87
2014-09-27T11:25:48.152Z,87
2014-09-27T11:26:05.732Z,83
2014-09-27T11:26:23.951Z,39
2014-09-27T11:26:42.169Z,37
2014-09-27T11:27:00.531Z,35
2014-09-27T11:27:18.765Z,35
2014-09-27T11:27:36.359Z,47
2014-09-27T11:27:54.078Z,85
2014-09-27T11:28:12.297Z,85
2014-09-27T11:28:29.891Z,87
2014-09-27T11:28:48.125Z,45
2014-09-27T11:29:06.346Z,34
2014-09-27T11:29:24.565Z,32
2014-09-27T11:29:42.784Z,31
2014-09-27T11:30:01.018Z,29
2014-09-27T11:30:18.598Z,28
2014-09-27T11:30:36.192Z,26
2014-09-27T11:30:53.161Z,25
2014-09-27T11:31:10.754Z,23
2014-09-27T11:31:28.976Z,22
2014-09-27T11:31:47.195Z,21
2014-09-27T11:32:05.429Z,20
2014-09-27T11:32:23.650Z,20
2014-09-27T11:32:41.869Z,19
2014-09-27T11:33:00.228Z,19
2014-09-27T11:33:18.448Z,20
2014-09-27T11:33:36.042Z,23
2014-09-27T11:33:53.620Z,65
2014-09-27T11:34:11.839Z,70
2014-09-27T11:34:28.810Z,68
2014-09-27T11:34:47.045Z,76
2014-09-27T11:35:05.263Z,78
2014-09-27T11:35:22.857Z,78
2014-09-27T11:35:40.594Z,78
2014-09-27T11:35:58.812Z,78
2014-09-27T11:36:16.422Z,78
2014-09-27T11:36:34.002Z,78
2014-09-27T11:36:51.111Z,78
2014-09-27T11:37:09.330Z,78
2014-09-27T11:37:26.924Z,78
2014-09-27T11:37:45.143Z,78
2014-09-27T11:38:03.362Z,79
2014-09-27T11:38:21.581Z,79
2014-09-27T11:38:39.803Z,79
2014-09-27T11:38:58.037Z,79
2014-09-27T11:39:16.256Z,79
2014-09-27T11:39:34.477Z,79
2014-09-27T11:39:52.211Z,79
2014-09-27T11:40:09.789Z,79
2014-09-27T11:40:28.023Z,79
2014-09-27T11:40:46.243Z,79
2014-09-27T11:41:04.478Z,80
2014-09-27T11:41:22.696Z,81
2014-09-27T11:41:40.918Z,39
2014-09-27T11:41:58.512Z,33
2014-09-27T11:42:16.731Z,35
2014-09-27T11:42:34.324Z,55
2014-09-27T11:42:52.545Z,76
2014-09-27T11:43:10.139Z,78
2014-09-27T11:43:28.358Z,80
2014-09-27T11:43:46.719Z,80
2014-09-27T11:44:04.938Z,80
2014-09-27T11:44:23.156Z,80
2014-09-27T11:44:41.375Z,81
2014-09-27T11:44:57.721Z,82
2014-09-27T11:45:15.315Z,81
2014-09-27T11:45:32.908Z,81
2014-09-27T11:45:50.502Z,81
2014-09-27T11:46:07.473Z,81
2014-09-27T11:46:25.692Z,81
2014-09-27T11:46:42.645Z,81
2014-09-27T11:46:59.614Z,81
2014-09-27T11:47:17.834Z,82
2014-09-27T11:47:35.553Z,81
2014-09-27T11:47:53.147Z,82
2014-09-27T11:48:11.381Z,82
2014-09-27T11:48:29.603Z,82
2014-09-27T11:48:47.962Z,82
2014-09-27T11:49:05.681Z,82
2014-09-27T11:49:24.042Z,82
2014-09-27T11:49:42.261Z,82
2014-09-27T11:50:00.496Z,82
2014-09-27T11:50:18.090Z,82
2014-09-27T11:50:35.684Z,83
2014-09-27T11:50:53.278Z,84
2014-09-27T11:51:11.497Z,84
2014-09-27T11:51:29.717Z,84
2014-09-27T11:51:47.952Z,84
2014-09-27T11:52:06.186Z,84
2014-09-27T11:52:23.782Z,84
2014-09-27T11:53:02.672Z,83
2014-09-27T11:53:20.891Z,83
2014-09-27T11:53:38.488Z,83
2014-09-27T11:53:56.082Z,84
2014-09-27T11:54:13.816Z,83
2014-09-27T11:54:32.035Z,84
2014-09-27T11:54:49.756Z,84
2014-09-27T11:55:08.115Z,85
2014-09-27T11:55:26.334Z,85
2014-09-27T11:55:44.569Z,85
2014-09-27T11:56:02.788Z,85
2014-09-27T11:56:21.007Z,85
2014-09-27T11:56:38.602Z,86
2014-09-27T11:56:56.196Z,87
2014-09-27T11:57:14.571Z,87
2014-09-27T11:57:31.540Z,87
2014-09-27T11:57:49.137Z,88
2014-09-27T11:58:07.355Z,88
2014-09-27T11:58:25.574Z,87
2014-09-27T11:58:43.795Z,87
2014-09-27T11:59:01.389Z,87
2014-09-27T11:59:18.982Z,87
2014-09-27T11:59:36.576Z,84
2014-09-27T11:59:53.687Z,85
2014-09-27T12:00:11.281Z,85
2014-09-27T12:00:28.875Z,84
2014-09-27T12:00:46.471Z,84
2014-09-27T12:01:04.064Z,72
2014-09-27T12:01:21.658Z,88
2014-09-27T12:01:39.893Z,88
2014-09-27T12:01:58.112Z,88
2014-09-27T12:02:15.097Z,88
2014-09-27T12:02:33.315Z,89
2014-09-27T12:02:51.536Z,89
2014-09-27T12:03:09.755Z,89
2014-09-27T12:03:27.349Z,89
2014-09-27T12:03:45.083Z,89
2014-09-27T12:04:02.680Z,89
2014-09-27T12:04:20.914Z,89
2014-09-27T12:04:38.633Z,89
2014-09-27T12:04:56.869Z,89
2014-09-27T12:05:13.838Z,89
2014-09-27T12:05:32.057Z,89
2014-09-27T12:05:49.651Z,89
2014-09-27T12:06:07.995Z,89
2014-09-27T12:06:26.339Z,89
2014-09-27T12:06:44.730Z,89
2014-09-27T12:07:01.683Z,89
2014-09-27T12:07:18.654Z,87
2014-09-27T12:07:36.888Z,82
2014-09-27T12:07:55.107Z,86
2014-09-27T12:08:12.827Z,73
2014-09-27T12:08:30.437Z,54
2014-09-27T12:08:48.156Z,86
2014-09-27T12:09:06.390Z,51
2014-09-27T12:09:24.612Z,83
2014-09-27T12:09:42.830Z,84
2014-09-27T12:10:01.049Z,71
2014-09-27T12:10:18.661Z,40
2014-09-27T12:10:36.879Z,38
2014-09-27T12:10:53.223Z,38
2014-09-27T12:11:10.801Z,64
2014-09-27T12:11:29.038Z,84
2014-09-27T12:11:47.256Z,84
2014-09-27T12:12:05.475Z,83
2014-09-27T12:12:23.695Z,83
2014-09-27T12:12:41.289Z,83
2014-09-27T12:12:59.523Z,83
2014-09-27T12:13:17.742Z,82
2014-09-27T12:13:35.963Z,82
2014-09-27T12:13:54.198Z,83
2014-09-27T12:14:11.792Z,83
2014-09-27T12:14:29.385Z,83
2014-09-27T12:14:47.606Z,83
2014-09-27T12:15:05.200Z,83
2014-09-27T12:15:23.559Z,83
2014-09-27T12:15:41.780Z,84
2014-09-27T12:15:58.249Z,84
2014-09-27T12:16:15.858Z,84
2014-09-27T12:16:34.202Z,84
2014-09-27T12:16:51.798Z,84
2014-09-27T12:17:10.157Z,84
2014-09-27T12:17:27.141Z,84
2014-09-27T12:17:44.737Z,83
2014-09-27T12:18:02.956Z,83
2014-09-27T12:18:21.175Z,82
2014-09-27T12:18:39.411Z,82
2014-09-27T12:18:57.005Z,82
2014-09-27T12:19:15.223Z,81
2014-09-27T12:19:32.817Z,81
2014-09-27T12:19:51.054Z,80
2014-09-27T12:20:09.288Z,80
2014-09-27T12:20:26.882Z,80
2014-09-27T12:20:44.616Z,80
2014-09-27T12:21:02.337Z,80
2014-09-27T12:21:20.556Z,80
2014-09-27T12:21:38.149Z,80
2014-09-27T12:21:56.370Z,80
2014-09-27T12:22:13.979Z,79
2014-09-27T12:22:31.573Z,79
2014-09-27T12:22:49.917Z,78
2014-09-27T12:23:07.513Z,77
2014-09-27T12:23:25.247Z,77
2014-09-27T12:23:42.841Z,77
2014-09-27T12:23:59.812Z,77
2014-09-27T12:24:18.030Z,77
2014-09-27T12:24:35.624Z,77
2014-09-27T12:24:53.843Z,76
2014-09-27T12:25:12.079Z,75
2014-09-27T12:25:29.673Z,75
2014-09-27T12:25:47.907Z,75
2014-09-27T12:26:06.128Z,75
2014-09-27T12:26:24.362Z,74
2014-09-27T12:26:41.941Z,74
2014-09-27T12:26:58.909Z,73
2014-09-27T12:27:17.130Z,73
2014-09-27T12:27:34.099Z,72
2014-09-27T12:27:52.333Z,72
2014-09-27T12:28:09.929Z,72
2014-09-27T12:28:27.648Z,71
2014-09-27T12:28:45.866Z,71
2014-09-27T12:29:03.476Z,71
2014-09-27T12:29:21.697Z,71
2014-09-27T12:29:39.915Z,71
2014-09-27T12:29:58.134Z,71
2014-09-27T12:30:15.745Z,71
2014-09-27T12:30:33.964Z,71
2014-09-27T12:30:51.558Z,71
2014-09-27T12:31:08.527Z,71
2014-09-27T12:31:26.263Z,71
2014-09-27T12:31:43.857Z,71
2014-09-27T12:32:02.076Z,71
2014-09-27T12:32:20.296Z,70
2014-09-27T12:32:38.515Z,70
2014-09-27T12:32:56.249Z,70
2014-09-27T12:33:14.610Z,70
2014-09-27T12:33:32.954Z,69
2014-09-27T12:33:51.188Z,69
2014-09-27T12:34:08.797Z,69
2014-09-27T12:34:25.785Z,68
2014-09-27T12:34:44.003Z,68
2014-09-27T12:35:02.222Z,68
2014-09-27T12:35:20.584Z,67
2014-09-27T12:35:38.943Z,67
2014-09-27T12:35:57.162Z,67
2014-09-27T12:36:15.396Z,67
2014-09-27T12:36:33.742Z,68
2014-09-27T12:36:51.961Z,68
2014-09-27T12:37:10.195Z,68
2014-09-27T12:37:28.416Z,68
2014-09-27T12:37:45.369Z,68
2014-09-27T12:38:02.994Z,67
2014-09-27T12:38:21.213Z,67
2014-09-27T12:38:39.432Z,67
2014-09-27T12:38:57.651Z,67
2014-09-27T12:39:15.245Z,67
2014-09-27T12:39:32.842Z,67
2014-09-27T12:39:50.451Z,67
2014-09-27T12:40:08.670Z,67
2014-09-27T12:40:26.888Z,67
2014-09-27T12:40:45.265Z,67
2014-09-27T12:41:02.859Z,67
2014-09-27T12:41:20.453Z,67
2014-09-27T12:41:38.674Z,67
2014-09-27T12:41:56.267Z,68
2014-09-27T12:42:14.502Z,68
2014-09-27T12:42:32.738Z,68
2014-09-27T12:42:50.957Z,68
2014-09-27T12:43:08.551Z,68
2014-09-27T12:43:26.144Z,68
2014-09-27T12:43:43.880Z,68
2014-09-27T12:44:02.099Z,68
2014-09-27T12:44:20.474Z,67
2014-09-27T12:44:38.695Z,67
2014-09-27T12:44:56.289Z,67
2014-09-27T12:45:13.258Z,66
2014-09-27T12:45:30.852Z,66
2014-09-27T12:45:49.087Z,67
2014-09-27T12:46:06.681Z,66
2014-09-27T12:46:24.274Z,66
2014-09-27T12:46:42.493Z,66
2014-09-27T12:47:00.074Z,66
2014-09-27T12:47:18.309Z,66
2014-09-27T12:47:36.512Z,66
2014-09-27T12:47:54.108Z,67
2014-09-27T12:48:12.326Z,67
2014-09-27T12:48:30.545Z,67
2014-09-27T12:48:47.514Z,67
2014-09-27T12:49:05.094Z,67
2014-09-27T12:49:22.688Z,68
2014-09-27T12:49:41.063Z,68
2014-09-27T12:49:58.642Z,68
2014-09-27T12:50:16.861Z,68
2014-09-27T12:50:35.079Z,68
2014-09-27T12:50:53.426Z,68
2014-09-27T12:51:11.020Z,68
2014-09-27T12:51:28.614Z,68
2014-09-27T12:51:45.707Z,67
2014-09-27T12:52:02.819Z,67
2014-09-27T12:52:21.162Z,66
2014-09-27T12:52:39.397Z,67
2014-09-27T12:52:56.366Z,67
2014-09-27T12:53:14.101Z,67
2014-09-27T12:53:32.320Z,67
2014-09-27T12:53:50.679Z,67
2014-09-27T12:54:08.901Z,67
2014-09-27T12:54:26.495Z,67
2014-09-27T12:54:44.713Z,67
2014-09-27T12:55:02.934Z,68
2014-09-27T12:55:21.153Z,68
2014-09-27T12:55:40.309Z,68
2014-09-27T12:55:57.403Z,68
2014-09-27T12:56:14.499Z,68
2014-09-27T12:56:32.717Z,68
2014-09-27T12:56:50.311Z,68
2014-09-27T12:57:08.530Z,68
2014-09-27T12:57:26.751Z,67
2014-09-27T12:57:44.360Z,67
2014-09-27T12:58:01.454Z,67
2014-09-27T12:58:19.674Z,67
2014-09-27T12:58:37.409Z,67
2014-09-27T12:58:55.628Z,66
2014-09-27T12:59:13.848Z,66
2014-09-27T12:59:32.067Z,66
2014-09-27T12:59:49.661Z,66
2014-09-27T13:00:07.239Z,66
2014-09-27T13:00:24.850Z,66
2014-09-27T13:00:43.069Z,66
2014-09-27T13:01:00.647Z,66
2014-09-27T13:01:18.868Z,66
2014-09-27T13:01:37.102Z,66
2014-09-27T13:01:54.805Z,66
2014-09-27T13:02:11.774Z,65
2014-09-27T13:02:30.011Z,65
2014-09-27T13:02:48.370Z,65
2014-09-27T13:03:06.729Z,64
2014-09-27T13:03:25.075Z,63
2014-09-27T13:03:43.309Z,64
2014-09-27T13:04:00.278Z,64
2014-09-27T13:04:18.513Z,64
2014-09-27T13:04:36.857Z,63
2014-09-27T13:04:55.092Z,63
2014-09-27T13:05:13.310Z,63
2014-09-27T13:05:31.673Z,64
2014-09-27T13:05:49.892Z,63
2014-09-27T13:06:08.110Z,62
2014-09-27T13:06:26.329Z,63
2014-09-27T13:06:43.909Z,63
2014-09-27T13:07:02.128Z,64
2014-09-27T13:07:19.862Z,64
2014-09-27T13:07:37.458Z,63
2014-09-27T13:07:55.677Z,64
2014-09-27T13:08:13.271Z,63
2014-09-27T13:08:30.880Z,63
2014-09-27T13:08:49.226Z,63
2014-09-27T13:09:07.444Z,64
2014-09-27T13:09:25.804Z,65
2014-09-27T13:09:43.400Z,59
2014-09-27T13:10:01.618Z,64
2014-09-27T13:10:19.837Z,63
2014-09-27T13:10:38.057Z,52
2014-09-27T13:10:56.276Z,25
2014-09-27T13:11:13.869Z,24
2014-09-27T13:11:31.463Z,24
2014-09-27T13:11:49.700Z,24
2014-09-27T13:12:06.654Z,22
2014-09-27T17:14:00.368Z,15
2014-09-27T17:14:17.946Z,19
2014-09-27T17:14:36.901Z,19
2014-09-27T17:14:54.385Z,20
2014-09-27T17:15:12.088Z,19
2014-09-27T17:15:30.291Z,20
2014-09-27T17:15:47.997Z,19
2014-09-27T17:16:06.340Z,20
2014-09-27T17:16:24.043Z,18
2014-09-27T17:16:42.233Z,20
2014-09-27T17:16:59.811Z,20
2014-09-27T17:17:17.389Z,19
2014-09-27T17:17:35.577Z,20
2014-09-27T17:17:52.532Z,19
2014-09-27T17:18:10.094Z,20
2014-09-27T17:18:27.672Z,19
2014-09-27T17:18:45.862Z,19
2014-09-27T17:19:04.206Z,20
2014-09-27T17:19:21.768Z,20
2014-09-27T17:19:39.362Z,20
2014-09-27T17:19:55.676Z,21
2014-09-27T17:20:13.880Z,20
2014-09-27T17:20:32.067Z,20
2014-09-27T17:20:50.413Z,20
2014-09-27T17:21:08.616Z,14
2014-09-27T17:21:26.803Z,15
2014-09-27T17:21:44.382Z,14
2014-09-27T17:22:01.961Z,14
2014-09-27T17:22:20.148Z,15
2014-09-27T17:22:38.351Z,14
2014-09-27T17:22:56.714Z,14
2014-09-27T17:23:15.042Z,14
2014-09-27T17:23:33.245Z,14
2014-09-27T17:23:51.450Z,14
2014-09-27T17:24:09.653Z,14
2014-09-27T17:24:27.856Z,14
2014-09-27T17:24:45.419Z,15
2014-09-27T17:25:02.999Z,14
2014-09-27T17:25:21.202Z,14
2014-09-27T17:25:38.765Z,14
2014-09-27T17:25:56.968Z,15
2014-09-27T17:26:14.548Z,15
2014-09-27T17:26:32.251Z,14
2014-09-27T17:26:50.454Z,15
2014-09-27T17:27:08.658Z,14
2014-09-27T17:27:26.236Z,14
2014-09-27T17:27:44.439Z,15
2014-09-27T17:28:02.143Z,15
2014-09-27T17:28:19.723Z,14
2014-09-27T17:28:37.910Z,14
2014-09-27T17:28:55.488Z,15
2014-09-27T17:29:13.694Z,15
2014-09-27T17:29:32.023Z,14
2014-09-27T17:29:48.991Z,14
2014-09-27T17:30:07.319Z,14
2014-09-27T17:30:25.525Z,15
2014-09-27T17:30:43.712Z,15
2014-09-27T17:31:01.290Z,15
2014-09-27T17:31:18.855Z,15
2014-09-27T17:31:37.058Z,13
2014-09-27T17:31:54.636Z,15
2014-09-27T17:32:12.823Z,15
2014-09-27T17:32:31.029Z,15
2014-09-27T17:32:49.232Z,13
2014-09-27T17:33:06.794Z,14
2014-09-27T17:33:24.999Z,15
2014-09-27T17:33:42.577Z,15
2014-09-27T17:34:00.781Z,15
2014-09-27T17:34:18.968Z,15
2014-09-27T17:34:37.173Z,14
2014-09-27T17:34:55.376Z,15
2014-09-27T17:35:12.954Z,14
2014-09-27T17:35:30.535Z,15
2014-09-27T17:35:48.722Z,15
2014-09-27T17:36:06.925Z,14